Terminal Aerodrome Forecast
Issued by NWS North Platte, NE

Home | Current Version | Previous Version | Text Only | Print | Product List | Glossary On
Versions: 1 2 3 4 5 6 7 8 9 10 11 12 13 14 15 16 17 18 19 20 21 22 23
000
FTUS43 KLBF 221700
TAFVTN
TAF
KVTN 221737Z 2218/2318 15015G21KT P6SM OVC070
     FM222200 14017G24KT P6SM -RA BKN025 OVC050
      TEMPO 2222/2301 5SM -RA BR OVC015
     FM230100 14009KT 5SM -RA BR OVC007
     FM230600 14007KT 2SM BR OVC005
     FM231500 14011KT P6SM OVC008=

USA.gov is the U.S. government's official web portal to all federal, state and local government web resources and services.